createdAt,value
2024-01-14T00:01:36.722Z,10.23
2024-01-14T00:04:04.576Z,14.95
2024-01-14T00:06:32.370Z,9.50
2024-01-14T00:09:00.124Z,9.57
2024-01-14T00:11:28.021Z,9.50
2024-01-14T00:13:55.749Z,7.97
2024-01-14T00:16:24.820Z,9.57
2024-01-14T00:18:52.738Z,10.27
2024-01-14T00:21:20.528Z,11.85
2024-01-14T00:23:48.386Z,11.18
2024-01-14T00:26:16.149Z,12.02
2024-01-14T00:28:43.857Z,10.88
2024-01-14T00:31:11.850Z,15.35
2024-01-14T00:33:42.040Z,12.57
2024-01-14T00:36:10.369Z,13.75
2024-01-14T00:38:38.687Z,16.17
2024-01-14T00:41:06.507Z,12.15
2024-01-14T00:43:34.214Z,11.45
2024-01-14T00:46:03.621Z,12.82
2024-01-14T00:48:31.601Z,12.30
2024-01-14T00:51:01.033Z,9.55
2024-01-14T00:53:28.784Z,13.25
2024-01-14T00:55:56.508Z,10.32
2024-01-14T00:58:24.296Z,10.43
2024-01-14T01:00:52.048Z,14.38
2024-01-14T01:03:20.053Z,12.90
2024-01-14T01:05:48.013Z,10.07
2024-01-14T01:08:17.155Z,16.05
2024-01-14T01:10:44.947Z,15.45
2024-01-14T01:13:12.689Z,11.68
2024-01-14T01:15:40.459Z,11.68
2024-01-14T01:18:08.370Z,12.63
2024-01-14T01:20:36.189Z,9.40
2024-01-14T01:23:04.197Z,7.95
2024-01-14T01:25:33.316Z,11.23
2024-01-14T01:28:01.010Z,11.95
2024-01-14T01:30:28.793Z,9.93
2024-01-14T01:32:56.737Z,12.55
2024-01-14T01:35:24.649Z,12.75
2024-01-14T01:37:52.364Z,9.60
2024-01-14T01:40:20.053Z,10.02
2024-01-14T01:42:50.950Z,12.02
2024-01-14T01:45:18.717Z,7.95
2024-01-14T01:47:46.817Z,13.93
2024-01-14T01:50:14.551Z,16.85
2024-01-14T01:52:42.616Z,11.10
2024-01-14T01:55:11.959Z,13.68
2024-01-14T01:57:40.411Z,11.63
2024-01-14T02:00:10.964Z,11.63
2024-01-14T02:02:42.762Z,12.82
2024-01-14T02:05:10.878Z,11.68
2024-01-14T02:07:38.672Z,13.52
2024-01-14T02:10:06.801Z,11.02
2024-01-14T02:12:34.527Z,8.07
2024-01-14T02:15:02.305Z,11.68
2024-01-14T02:17:31.519Z,10.95
2024-01-14T02:19:59.332Z,9.13
2024-01-14T02:22:29.687Z,13.40
2024-01-14T02:24:59.033Z,10.85
2024-01-14T02:27:26.957Z,10.25
2024-01-14T02:29:55.755Z,10.13
2024-01-14T02:32:23.586Z,7.40
2024-01-14T02:34:51.301Z,9.15
2024-01-14T02:37:19.006Z,12.60
2024-01-14T02:39:46.732Z,9.15
2024-01-14T02:42:15.935Z,10.90
2024-01-14T02:44:43.763Z,12.85
2024-01-14T02:47:11.591Z,9.88
2024-01-14T02:49:39.346Z,10.55
2024-01-14T02:52:07.084Z,12.15
2024-01-14T02:54:34.820Z,11.88
2024-01-14T02:57:02.594Z,10.00
2024-01-14T02:59:34.064Z,9.10
2024-01-14T03:02:02.399Z,6.88
2024-01-14T03:04:30.197Z,8.00
2024-01-14T03:06:58.125Z,13.25
2024-01-14T03:09:26.122Z,11.82
2024-01-14T03:11:53.877Z,8.43
2024-01-14T03:14:21.654Z,11.98
2024-01-14T03:16:50.766Z,11.20
2024-01-14T03:19:18.560Z,10.35
2024-01-14T03:21:46.389Z,12.88
2024-01-14T03:24:14.161Z,12.73
2024-01-14T03:26:41.901Z,11.73
2024-01-14T03:29:09.599Z,10.75
2024-01-14T03:31:37.362Z,9.95
2024-01-14T03:34:06.649Z,12.57
2024-01-14T03:36:34.457Z,9.63
2024-01-14T03:39:03.791Z,9.93
2024-01-14T03:41:31.596Z,12.20
2024-01-14T03:43:59.305Z,12.25
2024-01-14T03:46:27.103Z,11.63
2024-01-14T03:48:55.025Z,6.40
2024-01-14T03:51:24.319Z,10.15
2024-01-14T03:53:52.131Z,12.40
2024-01-14T03:56:19.879Z,10.82
2024-01-14T03:58:47.659Z,8.00
2024-01-14T04:01:19.171Z,11.95
2024-01-14T04:03:47.243Z,9.98
2024-01-14T04:06:15.118Z,13.75
2024-01-14T04:08:44.312Z,14.65
2024-01-14T04:11:12.002Z,9.38
2024-01-14T04:13:39.673Z,11.20
2024-01-14T04:16:08.695Z,13.07
2024-01-14T04:18:36.844Z,9.25
2024-01-14T04:21:05.290Z,10.82
2024-01-14T04:23:33.156Z,9.25
2024-01-14T04:26:06.948Z,10.60
2024-01-14T04:28:34.656Z,13.30
2024-01-14T04:31:02.509Z,11.35
2024-01-14T04:33:30.554Z,15.40
2024-01-14T04:35:58.423Z,12.63
2024-01-14T04:38:26.097Z,11.55
2024-01-14T04:40:53.795Z,8.52
2024-01-14T04:43:22.865Z,10.38
2024-01-14T04:45:50.585Z,14.52
2024-01-14T04:48:18.454Z,9.05
2024-01-14T04:50:46.260Z,9.68
2024-01-14T04:53:14.008Z,10.07
2024-01-14T04:55:41.764Z,10.00
2024-01-14T04:58:09.464Z,9.27
2024-01-14T05:00:38.762Z,10.85
2024-01-14T05:03:06.643Z,8.88
2024-01-14T05:05:34.416Z,9.27
2024-01-14T05:08:02.765Z,11.43
2024-01-14T05:10:30.761Z,12.98
2024-01-14T05:12:58.666Z,9.40
2024-01-14T05:15:26.451Z,10.70
2024-01-14T05:17:55.776Z,9.27
2024-01-14T05:20:23.932Z,12.90
2024-01-14T05:22:51.693Z,9.70
2024-01-14T05:25:19.399Z,9.52
2024-01-14T05:27:47.092Z,11.50
2024-01-14T05:30:15.599Z,9.63
2024-01-14T05:32:43.423Z,9.57
2024-01-14T05:35:12.531Z,12.65
2024-01-14T05:37:40.220Z,11.35
2024-01-14T05:40:08.850Z,12.93
2024-01-14T05:42:36.607Z,10.73
2024-01-14T05:45:04.521Z,6.43
2024-01-14T05:47:32.275Z,14.02
2024-01-14T05:50:01.052Z,12.43
2024-01-14T05:52:30.237Z,11.23
2024-01-14T05:54:58.123Z,11.77
2024-01-14T05:57:25.947Z,10.73
2024-01-14T05:59:53.752Z,8.07
2024-01-14T06:02:21.785Z,11.05
2024-01-14T06:04:49.661Z,8.13
2024-01-14T06:07:17.498Z,9.88
2024-01-14T06:09:46.661Z,11.43
2024-01-14T06:12:14.488Z,4.20
2024-01-14T06:14:42.300Z,8.50
2024-01-14T06:17:10.268Z,7.07
2024-01-14T06:19:38.112Z,14.68
2024-01-14T06:22:05.956Z,9.90
2024-01-14T06:24:33.767Z,11.70
2024-01-14T06:27:03.779Z,9.75
2024-01-14T06:29:31.557Z,12.45
2024-01-14T06:31:59.929Z,9.27
2024-01-14T06:34:27.732Z,12.23
2024-01-14T06:36:55.467Z,7.50
2024-01-14T06:39:23.207Z,10.05
2024-01-14T06:41:51.491Z,10.73
2024-01-14T06:44:20.575Z,9.25
2024-01-14T06:46:49.332Z,8.70
2024-01-14T06:49:17.280Z,12.40
2024-01-14T06:51:45.549Z,11.45
2024-01-14T06:54:13.441Z,11.77
2024-01-14T06:56:45.258Z,9.48
2024-01-14T06:59:14.644Z,8.15
2024-01-14T07:01:43.889Z,8.70
2024-01-14T07:04:11.678Z,11.80
2024-01-14T07:06:39.471Z,8.35
2024-01-14T07:09:09.713Z,9.88
2024-01-14T07:11:37.615Z,9.60
2024-01-14T07:14:05.327Z,8.38
2024-01-14T07:16:33.084Z,12.43
2024-01-14T07:19:02.527Z,14.82
2024-01-14T07:21:30.779Z,10.77
2024-01-14T07:23:58.555Z,9.65
2024-01-14T07:26:26.264Z,10.38
2024-01-14T07:28:54.656Z,8.27
2024-01-14T07:31:23.589Z,10.32
2024-01-14T07:33:52.708Z,10.32
2024-01-14T07:36:22.714Z,9.95
2024-01-14T07:38:51.961Z,10.00
2024-01-14T07:41:19.846Z,8.00
2024-01-14T07:43:47.612Z,8.40
2024-01-14T07:46:15.531Z,8.18
2024-01-14T07:48:43.968Z,11.77
2024-01-14T07:51:12.105Z,10.68
2024-01-14T07:53:41.216Z,12.95
2024-01-14T07:56:09.274Z,8.30
2024-01-14T07:58:36.962Z,7.82
2024-01-14T08:01:04.953Z,9.55
2024-01-14T08:03:33.149Z,9.55
2024-01-14T08:06:01.759Z,10.15
2024-01-14T08:08:29.757Z,9.00
2024-01-14T08:10:58.840Z,8.25
2024-01-14T08:13:27.140Z,10.13
2024-01-14T08:16:01.460Z,11.18
2024-01-14T08:18:32.369Z,14.30
2024-01-14T08:21:01.086Z,11.73
2024-01-14T08:23:30.713Z,8.85
2024-01-14T08:25:59.798Z,9.63
2024-01-14T08:28:27.450Z,10.35
2024-01-14T08:30:55.276Z,10.27
2024-01-14T08:33:23.233Z,14.25
2024-01-14T08:35:51.070Z,13.52
2024-01-14T08:38:18.796Z,9.38
2024-01-14T08:40:46.469Z,9.45
2024-01-14T08:43:15.612Z,11.40
2024-01-14T08:45:43.364Z,8.40
2024-01-14T08:48:11.878Z,9.52
2024-01-14T08:50:39.876Z,10.13
2024-01-14T08:53:07.575Z,13.15
2024-01-14T08:55:35.287Z,14.82
2024-01-14T08:58:03.020Z,11.82
2024-01-14T09:00:32.189Z,10.63
2024-01-14T09:02:59.998Z,12.27
2024-01-14T09:05:27.758Z,10.73
2024-01-14T09:07:55.537Z,11.77
2024-01-14T09:10:23.292Z,7.10
2024-01-14T09:12:51.070Z,7.18
2024-01-14T09:15:18.845Z,6.82
2024-01-14T09:17:48.061Z,15.10
2024-01-14T09:20:16.114Z,12.15
2024-01-14T09:22:43.953Z,10.90
2024-01-14T09:25:13.442Z,8.05
2024-01-14T09:27:41.533Z,11.55
2024-01-14T09:30:09.969Z,13.32
2024-01-14T09:32:37.818Z,7.70
2024-01-14T09:35:07.852Z,12.02
2024-01-14T09:37:35.547Z,11.82
2024-01-14T09:40:03.259Z,9.20
2024-01-14T09:42:35.697Z,13.50
2024-01-14T09:45:05.619Z,10.50
2024-01-14T09:47:34.040Z,12.10
2024-01-14T09:50:02.589Z,11.88
2024-01-14T09:52:32.954Z,9.55
2024-01-14T09:55:00.831Z,9.68
2024-01-14T09:57:30.768Z,8.82
2024-01-14T10:00:00.987Z,9.18
2024-01-14T10:02:28.973Z,7.05
2024-01-14T10:04:56.895Z,12.25
2024-01-14T10:07:25.210Z,8.38
2024-01-14T10:09:54.834Z,11.43
2024-01-14T10:12:22.723Z,8.68
2024-01-14T10:14:58.350Z,10.27
2024-01-14T10:17:26.134Z,10.85
2024-01-14T10:19:54.247Z,10.80
2024-01-14T10:22:21.705Z,9.73
2024-01-14T10:24:54.175Z,8.98
2024-01-14T10:27:34.274Z,9.50
2024-01-14T10:30:05.905Z,9.85
2024-01-14T10:33:14.904Z,8.55
2024-01-14T10:35:21.798Z,8.07
2024-01-14T10:37:49.947Z,10.77
2024-01-14T10:40:19.602Z,10.38
2024-01-14T10:42:48.718Z,10.35
2024-01-14T10:45:16.676Z,11.30
2024-01-14T10:47:47.710Z,10.32
2024-01-14T10:50:18.949Z,8.25
2024-01-14T10:52:50.651Z,10.23
2024-01-14T10:55:29.510Z,11.35
2024-01-14T10:57:58.882Z,11.82
2024-01-14T11:00:26.754Z,13.00
2024-01-14T11:02:55.123Z,11.60
2024-01-14T11:05:23.364Z,9.82
2024-01-14T11:07:51.773Z,12.10
2024-01-14T11:10:20.992Z,12.40
2024-01-14T11:12:50.971Z,12.40
2024-01-14T11:15:23.130Z,13.85
2024-01-14T11:17:55.908Z,11.65
2024-01-14T11:20:29.156Z,14.40
2024-01-14T11:22:59.470Z,11.40
2024-01-14T11:25:34.394Z,10.68
2024-01-14T11:28:03.051Z,12.05
2024-01-14T11:30:49.595Z,12.15
2024-01-14T11:33:30.769Z,10.60
2024-01-14T11:35:58.972Z,10.27
2024-01-14T11:38:36.523Z,10.43
2024-01-14T11:41:22.986Z,12.75
2024-01-14T11:43:52.236Z,9.88
2024-01-14T11:46:41.646Z,10.13
2024-01-14T11:49:17.081Z,10.63
2024-01-14T11:51:58.406Z,10.15
2024-01-14T11:54:27.681Z,12.38
2024-01-14T11:56:55.910Z,11.20
2024-01-14T11:59:34.894Z,12.38
2024-01-14T12:02:16.104Z,12.25
2024-01-14T12:04:45.695Z,11.35
2024-01-14T12:07:21.387Z,12.35
2024-01-14T12:09:53.532Z,11.95
2024-01-14T12:12:21.315Z,11.95
2024-01-14T12:14:50.462Z,10.65
2024-01-14T12:17:18.146Z,12.85
2024-01-14T12:19:57.040Z,14.40
2024-01-14T12:22:25.011Z,13.50
2024-01-14T12:24:52.753Z,12.90
2024-01-14T12:27:20.448Z,11.82
2024-01-14T12:29:48.434Z,10.15
2024-01-14T12:32:18.560Z,12.18
2024-01-14T12:34:46.539Z,13.68
2024-01-14T12:37:14.619Z,13.45
2024-01-14T12:39:42.664Z,12.15
2024-01-14T12:42:12.940Z,12.35
2024-01-14T12:44:43.712Z,12.35
2024-01-14T12:47:11.497Z,12.90
2024-01-14T12:49:40.801Z,14.13
2024-01-14T12:52:09.247Z,10.68
2024-01-14T12:54:37.462Z,12.05
2024-01-14T12:57:16.280Z,10.48
2024-01-14T12:59:48.210Z,11.75
2024-01-14T13:02:16.108Z,13.45
2024-01-14T13:04:45.232Z,13.27
2024-01-14T13:07:14.002Z,13.23
2024-01-14T13:09:42.853Z,14.20
2024-01-14T13:12:10.921Z,14.52
2024-01-14T13:14:38.662Z,17.50
2024-01-14T13:17:06.406Z,13.52
2024-01-14T13:19:34.231Z,13.40
2024-01-14T13:22:03.470Z,18.67
2024-01-14T13:24:31.882Z,15.85
2024-01-14T13:27:00.004Z,15.75
2024-01-14T13:29:27.904Z,18.15
2024-01-14T13:31:55.749Z,16.60
2024-01-14T13:34:24.071Z,17.05
2024-01-14T13:36:51.920Z,17.42
2024-01-14T13:39:21.119Z,12.48
2024-01-14T13:41:48.981Z,13.98
2024-01-14T13:44:18.399Z,20.42
2024-01-14T13:46:47.472Z,16.33
2024-01-14T13:49:16.066Z,15.77
2024-01-14T13:51:44.114Z,17.05
2024-01-14T13:54:14.392Z,13.43
2024-01-14T13:56:45.433Z,16.27
2024-01-14T13:59:13.523Z,13.20
2024-01-14T14:01:41.690Z,12.63
2024-01-14T14:04:10.450Z,13.32
2024-01-14T14:06:39.554Z,13.35
2024-01-14T14:09:09.214Z,11.23
2024-01-14T14:11:37.690Z,14.63
2024-01-14T14:14:07.094Z,16.15
2024-01-14T14:16:40.372Z,12.52
2024-01-14T14:19:11.695Z,11.77
2024-01-14T14:21:51.208Z,10.85
2024-01-14T14:24:26.637Z,9.40
2024-01-14T14:26:54.649Z,11.68
2024-01-14T14:29:25.851Z,11.73
2024-01-14T14:31:55.452Z,10.68
2024-01-14T14:34:24.332Z,10.27
2024-01-14T14:36:52.241Z,10.40
2024-01-14T14:39:20.332Z,9.93
2024-01-14T14:41:48.661Z,10.13
2024-01-14T14:44:16.632Z,7.40
2024-01-14T14:46:45.882Z,6.53
2024-01-14T14:49:13.992Z,9.27
2024-01-14T14:51:42.581Z,7.25
2024-01-14T14:54:11.251Z,8.27
2024-01-14T14:56:39.869Z,10.57
2024-01-14T14:59:07.721Z,9.13
2024-01-14T15:01:42.627Z,7.80
2024-01-14T15:04:15.857Z,8.27
2024-01-14T15:06:45.139Z,6.78
2024-01-14T15:09:13.929Z,8.82
2024-01-14T15:11:42.459Z,8.00
2024-01-14T15:14:11.041Z,8.55
2024-01-14T15:16:39.085Z,6.45
2024-01-14T15:19:07.170Z,8.30
2024-01-14T15:21:36.532Z,6.63
2024-01-14T15:24:04.741Z,7.70
2024-01-14T15:26:32.785Z,7.63
2024-01-14T15:29:03.523Z,9.52
2024-01-14T15:31:31.436Z,8.57
2024-01-14T15:33:59.787Z,9.93
2024-01-14T15:36:28.284Z,9.40
2024-01-14T15:38:57.578Z,8.02
2024-01-14T15:41:26.286Z,9.15
2024-01-14T15:43:54.069Z,7.65
2024-01-14T15:46:21.772Z,5.72
2024-01-14T15:48:49.998Z,8.02
2024-01-14T15:51:18.712Z,8.02
2024-01-14T15:53:46.626Z,11.60
2024-01-14T15:56:15.705Z,7.38
2024-01-14T15:58:43.459Z,6.40
2024-01-14T16:01:13.706Z,5.90
2024-01-14T16:03:45.487Z,7.15
2024-01-14T16:06:15.644Z,7.43
2024-01-14T16:08:44.795Z,6.30
2024-01-14T16:11:12.578Z,7.35
2024-01-14T16:13:41.663Z,6.28
2024-01-14T16:16:09.680Z,7.25
2024-01-14T16:18:37.649Z,8.32
2024-01-14T16:21:07.570Z,7.60
2024-01-14T16:23:37.585Z,9.32
2024-01-14T16:26:06.549Z,6.10
2024-01-14T16:28:34.299Z,5.10
2024-01-14T16:31:11.827Z,7.18
2024-01-14T16:33:43.349Z,5.20
2024-01-14T16:36:12.233Z,6.63
2024-01-14T16:38:40.110Z,8.88
2024-01-14T16:41:08.898Z,8.63
2024-01-14T16:43:37.655Z,9.48
2024-01-14T16:46:07.172Z,11.15
2024-01-14T16:48:35.669Z,7.68
2024-01-14T16:51:08.875Z,8.00
2024-01-14T16:53:39.885Z,8.13
2024-01-14T16:56:08.547Z,5.65
2024-01-14T16:58:36.513Z,7.20
2024-01-14T17:01:14.875Z,8.27
2024-01-14T17:03:46.445Z,6.75
2024-01-14T17:06:16.433Z,10.20
2024-01-14T17:08:45.378Z,7.70
2024-01-14T17:11:15.075Z,8.77
2024-01-14T17:13:43.311Z,6.55
2024-01-14T17:16:21.201Z,7.18
2024-01-14T17:18:49.463Z,5.55
2024-01-14T17:21:18.265Z,9.98
2024-01-14T17:23:46.412Z,7.43
2024-01-14T17:26:14.113Z,6.97
2024-01-14T17:28:42.447Z,6.97
2024-01-14T17:31:13.104Z,10.02
2024-01-14T17:33:43.882Z,8.80
2024-01-14T17:36:12.058Z,5.15
2024-01-14T17:38:40.107Z,8.05
2024-01-14T17:41:09.935Z,8.48
2024-01-14T17:43:37.691Z,7.68
2024-01-14T17:46:08.395Z,7.78
2024-01-14T17:48:37.737Z,6.35
2024-01-14T17:51:08.645Z,10.70
2024-01-14T17:53:36.705Z,10.18
2024-01-14T17:56:04.872Z,10.05
2024-01-14T17:58:32.585Z,8.15
2024-01-14T18:01:02.690Z,11.48
2024-01-14T18:03:30.922Z,10.70
2024-01-14T18:05:59.433Z,10.65
2024-01-14T18:08:28.646Z,8.95
2024-01-14T18:10:56.321Z,13.27
2024-01-14T18:13:24.120Z,12.52
2024-01-14T18:15:51.936Z,13.10
2024-01-14T18:18:19.973Z,12.45
2024-01-14T18:20:48.423Z,13.25
2024-01-14T18:23:16.201Z,14.43
2024-01-14T18:25:46.142Z,14.70
2024-01-14T18:28:14.748Z,15.70
2024-01-14T18:30:42.724Z,13.18
2024-01-14T18:33:13.451Z,17.05
2024-01-14T18:35:43.981Z,17.17
2024-01-14T18:38:13.703Z,13.65
2024-01-14T18:40:41.833Z,14.88
2024-01-14T18:43:11.006Z,16.35
2024-01-14T18:45:39.068Z,13.98
2024-01-14T18:48:08.159Z,15.95
2024-01-14T18:50:36.861Z,15.85
2024-01-14T18:53:05.729Z,17.92
2024-01-14T18:55:35.378Z,14.10
2024-01-14T18:58:03.401Z,15.25
2024-01-14T19:00:32.597Z,16.63
2024-01-14T19:03:00.597Z,17.80
2024-01-14T19:05:28.566Z,21.55
2024-01-14T19:07:57.441Z,14.70
2024-01-14T19:10:26.706Z,17.35
2024-01-14T19:12:56.970Z,18.92
2024-01-14T19:15:25.142Z,19.05
2024-01-14T19:17:54.327Z,17.42
2024-01-14T19:20:22.190Z,18.90
2024-01-14T19:22:49.962Z,16.52
2024-01-14T19:25:17.770Z,16.80
2024-01-14T19:27:45.692Z,17.13
2024-01-14T19:30:13.900Z,17.65
2024-01-14T19:32:41.749Z,17.70
2024-01-14T19:35:11.163Z,17.92
2024-01-14T19:37:38.838Z,19.35
2024-01-14T19:40:07.073Z,19.40
2024-01-14T19:42:34.966Z,18.92
2024-01-14T19:45:02.770Z,18.45
2024-01-14T19:47:31.077Z,18.23
2024-01-14T19:49:58.958Z,16.00
2024-01-14T19:52:28.122Z,17.80
2024-01-14T19:54:55.938Z,17.55
2024-01-14T19:57:23.749Z,20.35
2024-01-14T19:59:51.950Z,16.88
2024-01-14T20:02:19.657Z,11.60
2024-01-14T20:04:47.372Z,12.40
2024-01-14T20:07:15.117Z,17.27
2024-01-14T20:09:44.268Z,11.80
2024-01-14T20:12:12.088Z,7.97
2024-01-14T20:14:43.219Z,12.50
2024-01-14T20:17:12.742Z,11.25
2024-01-14T20:19:40.635Z,10.70
2024-01-14T20:22:08.429Z,12.77
2024-01-14T20:24:39.889Z,12.18
2024-01-14T20:27:09.427Z,14.45
2024-01-14T20:29:37.743Z,8.57
2024-01-14T20:32:05.649Z,13.05
2024-01-14T20:34:33.544Z,11.55
2024-01-14T20:37:01.417Z,11.02
2024-01-14T20:39:32.213Z,13.63
2024-01-14T20:42:02.978Z,11.73
2024-01-14T20:44:32.393Z,11.10
2024-01-14T20:47:01.421Z,9.63
2024-01-14T20:49:29.401Z,10.70
2024-01-14T20:51:57.193Z,10.07
2024-01-14T20:54:25.177Z,10.50
2024-01-14T20:56:52.900Z,8.20
2024-01-14T20:59:20.665Z,9.95
2024-01-14T21:01:49.762Z,10.10
2024-01-14T21:04:17.643Z,10.80
2024-01-14T21:06:45.478Z,8.60
2024-01-14T21:09:14.134Z,6.07
2024-01-14T21:11:42.053Z,8.88
2024-01-14T21:14:09.770Z,12.07
2024-01-14T21:16:38.568Z,7.85
2024-01-14T21:19:08.767Z,11.80
2024-01-14T21:21:36.654Z,10.80
2024-01-14T21:24:04.581Z,11.95
2024-01-14T21:26:32.362Z,7.97
2024-01-14T21:29:02.452Z,9.75
2024-01-14T21:31:30.276Z,9.70
2024-01-14T21:33:58.293Z,9.48
2024-01-14T21:36:27.819Z,8.15
2024-01-14T21:38:55.550Z,6.88
2024-01-14T21:41:23.287Z,8.80
2024-01-14T21:43:50.990Z,9.60
2024-01-14T21:46:18.697Z,7.30
2024-01-14T21:48:46.544Z,8.20
2024-01-14T21:51:14.362Z,7.95
2024-01-14T21:53:43.470Z,10.38
2024-01-14T21:56:11.254Z,8.80
2024-01-14T21:58:38.991Z,6.15
2024-01-14T22:01:06.873Z,7.60
2024-01-14T22:03:34.752Z,9.70
2024-01-14T22:06:04.368Z,8.68
2024-01-14T22:08:34.142Z,10.15
2024-01-14T22:11:03.285Z,6.40
2024-01-14T22:13:31.058Z,8.40
2024-01-14T22:15:58.895Z,8.77
2024-01-14T22:18:26.896Z,6.90
2024-01-14T22:20:54.757Z,7.35
2024-01-14T22:23:22.588Z,7.47
2024-01-14T22:25:50.301Z,9.85
2024-01-14T22:28:21.470Z,6.07
2024-01-14T22:30:49.444Z,9.25
2024-01-14T22:33:17.354Z,11.23
2024-01-14T22:35:45.179Z,7.05
2024-01-14T22:38:13.404Z,5.45
2024-01-14T22:40:42.587Z,11.55
2024-01-14T22:43:10.361Z,5.97
2024-01-14T22:45:39.892Z,5.97
2024-01-14T22:48:07.989Z,7.32
2024-01-14T22:50:35.860Z,9.73
2024-01-14T22:53:03.597Z,9.70
2024-01-14T22:55:31.286Z,5.38
2024-01-14T22:57:58.994Z,7.80
2024-01-14T23:00:29.038Z,6.53
2024-01-14T23:02:58.238Z,6.05
2024-01-14T23:05:25.959Z,5.50
2024-01-14T23:07:53.693Z,4.65
2024-01-14T23:10:21.391Z,9.98
2024-01-14T23:12:49.154Z,6.10
2024-01-14T23:15:17.325Z,5.53
2024-01-14T23:17:45.146Z,5.82
2024-01-14T23:20:14.815Z,3.88
2024-01-14T23:22:42.543Z,7.60
2024-01-14T23:25:11.207Z,8.32
2024-01-14T23:27:40.804Z,4.15
2024-01-14T23:30:10.374Z,7.32
2024-01-14T23:32:38.174Z,8.15
2024-01-14T23:35:06.225Z,6.70
2024-01-14T23:37:35.364Z,6.25
2024-01-14T23:40:03.119Z,5.32
2024-01-14T23:42:30.874Z,6.15
2024-01-14T23:44:58.600Z,5.65
2024-01-14T23:47:26.329Z,3.03
2024-01-14T23:49:54.091Z,4.35
2024-01-14T23:52:21.814Z,5.80
2024-01-14T23:54:51.041Z,3.22
2024-01-14T23:57:18.897Z,8.48
2024-01-14T23:59:47.175Z,5.07
